Time;durP1;ratioP1;P1;durP2;ratioP2;P2;SDS_P1;SDS_P2;PMS_P1;PMS_P2;Temp;Humidity;BMP_temperature;BMP_pressure;BME280_temperature;BME280_humidity;BME280_pressure;Samples;Min_cycle;Max_cycle;Signal;HPM_P1;HPM_P2
2022/06/10 00:00:40;;;;;;;6.93;4.17;;;14.70;99.90;;;;;;5118992;28;20494;-78
2022/06/10 00:03:08;;;;;;;5.77;4.20;;;14.60;99.90;;;;;;5119245;28;20498;-79
2022/06/10 00:05:36;;;;;;;7.40;3.87;;;14.60;99.90;;;;;;5119069;28;20530;-78
2022/06/10 00:08:05;;;;;;;4.80;3.60;;;14.60;99.90;;;;;;5118196;28;20568;-79
2022/06/10 00:10:32;;;;;;;8.17;4.30;;;14.60;99.90;;;;;;5118075;28;20451;-79
2022/06/10 00:13:00;;;;;;;5.33;3.70;;;14.50;99.90;;;;;;5117865;28;20967;-79
2022/06/10 00:15:28;;;;;;;7.07;4.10;;;14.50;99.90;;;;;;5118126;28;20563;-79
2022/06/10 00:17:55;;;;;;;4.73;4.20;;;14.50;99.90;;;;;;5118137;28;20509;-80
2022/06/10 00:20:25;;;;;;;9.37;4.60;;;14.50;99.90;;;;;;5119153;28;20483;-79
2022/06/10 00:22:53;;;;;;;4.87;3.90;;;14.50;99.90;;;;;;5118859;28;20489;-80
2022/06/10 00:25:20;;;;;;;5.23;3.70;;;14.50;99.90;;;;;;5118919;28;20454;-80
2022/06/10 00:27:49;;;;;;;5.47;4.13;;;14.40;99.90;;;;;;5118666;28;20467;-80
2022/06/10 00:30:19;;;;;;;7.93;4.07;;;14.40;99.90;;;;;;5118382;28;20459;-79
2022/06/10 00:32:46;;;;;;;7.47;3.80;;;14.40;99.90;;;;;;5118102;28;20966;-79
2022/06/10 00:35:14;;;;;;;7.00;4.77;;;14.40;99.90;;;;;;5118215;28;20544;-79
2022/06/10 00:37:41;;;;;;;6.57;4.40;;;14.40;99.90;;;;;;5118057;28;20556;-80
2022/06/10 00:40:13;;;;;;;5.50;4.33;;;14.40;99.90;;;;;;5116815;28;20533;-79
2022/06/10 00:42:39;;;;;;;7.93;4.67;;;14.40;99.90;;;;;;5117219;28;20568;-80
2022/06/10 00:45:28;;;;;;;5.50;4.40;;;14.40;99.90;;;;;;5117174;28;20503;-79
2022/06/10 00:47:56;;;;;;;5.17;3.90;;;14.40;99.90;;;;;;5116731;28;20594;-79
2022/06/10 00:50:28;;;;;;;7.23;4.53;;;14.30;99.90;;;;;;5117720;28;20534;-80
2022/06/10 00:52:59;;;;;;;5.67;4.57;;;14.30;99.90;;;;;;5118144;28;20468;-80
2022/06/10 00:55:29;;;;;;;9.57;4.60;;;14.30;99.90;;;;;;5119069;28;20549;-80
2022/06/10 00:58:01;;;;;;;5.60;3.93;;;14.20;99.90;;;;;;5118761;28;20568;-79
2022/06/10 01:00:29;;;;;;;7.13;4.70;;;14.20;99.90;;;;;;5118970;28;20884;-80
2022/06/10 01:02:57;;;;;;;6.30;4.40;;;14.20;99.90;;;;;;5118549;28;20498;-80
2022/06/10 01:05:27;;;;;;;7.77;4.70;;;14.20;99.90;;;;;;5119408;28;20498;-80
2022/06/10 01:07:59;;;;;;;5.33;4.20;;;14.20;99.90;;;;;;5119756;28;20484;-80
2022/06/10 01:10:27;;;;;;;5.60;3.90;;;14.20;99.90;;;;;;5119032;28;20523;-80
2022/06/10 01:13:07;;;;;;;5.13;3.97;;;14.10;99.90;;;;;;5118872;28;20505;-79
2022/06/10 01:15:39;;;;;;;6.53;4.10;;;14.10;99.90;;;;;;5119356;28;20870;-80
2022/06/10 01:18:27;;;;;;;8.20;4.07;;;14.10;99.90;;;;;;5119100;28;20477;-81
2022/06/10 01:21:08;;;;;;;4.20;3.57;;;14.00;99.90;;;;;;5119324;28;20543;-81
2022/06/10 01:24:06;;;;;;;5.23;4.00;;;13.90;99.90;;;;;;5119515;28;20485;-81
2022/06/10 01:30:07;;;;;;;6.40;4.47;;;13.90;99.90;;;;;;5111479;28;20503;-81
2022/06/10 01:32:43;;;;;;;5.37;4.10;;;13.90;99.90;;;;;;5123374;28;20481;-79
2022/06/10 01:35:20;;;;;;;5.27;3.87;;;13.90;99.90;;;;;;5126670;28;20468;-80
2022/06/10 01:37:55;;;;;;;4.93;4.43;;;13.90;99.90;;;;;;5124235;28;20470;-80
2022/06/10 01:40:29;;;;;;;6.50;4.30;;;13.90;99.90;;;;;;5116644;28;20543;-81
2022/06/10 01:43:02;;;;;;;8.27;4.80;;;13.80;99.90;;;;;;5116642;28;20559;-80
2022/06/10 01:45:34;;;;;;;4.40;3.03;;;13.80;99.90;;;;;;5117499;28;21001;-79
2022/06/10 01:48:07;;;;;;;5.27;3.70;;;13.80;99.90;;;;;;5117596;28;20534;-79
2022/06/10 01:50:41;;;;;;;5.07;4.57;;;13.80;99.90;;;;;;5117432;28;20452;-80
2022/06/10 01:53:12;;;;;;;4.97;3.77;;;13.70;99.90;;;;;;5117537;28;20463;-81
2022/06/10 01:55:46;;;;;;;5.53;3.70;;;13.70;99.90;;;;;;5117782;28;20455;-81
2022/06/10 01:58:19;;;;;;;6.83;4.07;;;13.70;99.90;;;;;;5118141;28;20462;-81
2022/06/10 02:00:49;;;;;;;6.10;3.80;;;13.70;99.90;;;;;;5117998;28;20449;-80
2022/06/10 02:03:24;;;;;;;12.10;3.80;;;13.60;99.90;;;;;;5117110;28;20568;-81
2022/06/10 02:05:54;;;;;;;4.00;3.20;;;13.60;99.90;;;;;;5118020;28;20546;-80
2022/06/10 02:08:29;;;;;;;6.60;4.00;;;13.60;99.90;;;;;;5117677;28;20573;-80
2022/06/10 02:11:02;;;;;;;8.97;5.70;;;13.60;99.90;;;;;;5118259;28;20467;-81
2022/06/10 02:13:35;;;;;;;4.93;4.10;;;13.60;99.90;;;;;;5118976;28;21066;-81
2022/06/10 02:16:05;;;;;;;5.30;3.97;;;13.60;99.90;;;;;;5118752;28;20461;-82
2022/06/10 02:18:39;;;;;;;7.70;4.50;;;13.60;99.90;;;;;;5118658;28;20925;-82
2022/06/10 02:21:13;;;;;;;6.97;4.77;;;13.50;99.90;;;;;;5118845;28;20487;-82
2022/06/10 02:23:46;;;;;;;6.33;3.83;;;13.50;99.90;;;;;;5118714;28;20484;-81
2022/06/10 02:26:14;;;;;;;4.50;4.10;;;13.50;99.90;;;;;;5118562;28;20528;-80
2022/06/10 02:28:48;;;;;;;7.83;3.97;;;13.50;99.90;;;;;;5120663;28;20468;-82
2022/06/10 02:31:19;;;;;;;4.10;3.40;;;13.50;99.90;;;;;;5119779;28;20487;-81
2022/06/10 02:33:48;;;;;;;4.53;4.13;;;13.40;99.90;;;;;;5119118;28;20497;-82
2022/06/10 02:36:22;;;;;;;7.50;4.20;;;13.40;99.90;;;;;;5119902;28;20452;-82
2022/06/10 02:38:56;;;;;;;8.90;4.47;;;13.40;99.90;;;;;;5120319;28;20919;-82
2022/06/10 02:41:32;;;;;;;8.70;4.50;;;13.50;99.90;;;;;;5120458;28;20458;-81
2022/06/10 02:44:07;;;;;;;5.50;4.40;;;13.50;99.90;;;;;;5120081;28;20494;-82
2022/06/10 02:46:37;;;;;;;7.63;4.23;;;13.50;99.90;;;;;;5122206;28;20478;-81
2022/06/10 02:49:08;;;;;;;8.70;4.20;;;13.50;99.90;;;;;;5115225;28;20507;-80
2022/06/10 02:51:37;;;;;;;7.10;4.50;;;13.50;99.90;;;;;;5115377;28;20459;-80
2022/06/10 02:54:06;;;;;;;7.37;4.73;;;13.40;99.90;;;;;;5114705;28;20487;-80
2022/06/10 02:56:33;;;;;;;6.97;4.30;;;13.50;99.90;;;;;;5114714;28;20450;-80
2022/06/10 03:02:03;;;;;;;9.73;4.57;;;13.40;99.90;;;;;;5113880;28;20432;-80
2022/06/10 03:04:42;;;;;;;5.53;4.07;;;13.30;99.90;;;;;;5115211;28;20892;-81
2022/06/10 03:07:27;;;;;;;7.80;4.73;;;13.30;99.90;;;;;;5114201;28;20452;-81
2022/06/10 03:10:07;;;;;;;5.30;4.80;;;13.40;99.90;;;;;;5114061;28;20535;-81
2022/06/10 03:12:38;;;;;;;6.87;4.40;;;13.30;99.90;;;;;;5113084;28;20480;-82
2022/06/10 03:15:31;;;;;;;8.60;5.40;;;13.40;99.90;;;;;;5114541;28;20833;-79
2022/06/10 03:18:11;;;;;;;5.60;4.70;;;13.30;99.90;;;;;;5114314;28;20924;-81
2022/06/10 03:20:48;;;;;;;10.50;5.10;;;13.40;99.90;;;;;;5114156;28;20443;-81
2022/06/10 03:23:22;;;;;;;8.10;5.57;;;13.40;99.90;;;;;;5114348;28;21037;-81
2022/06/10 03:25:53;;;;;;;6.27;5.40;;;13.40;99.90;;;;;;5114657;28;20443;-80
2022/06/10 03:28:25;;;;;;;10.40;4.90;;;13.40;99.90;;;;;;5114132;28;20468;-80
2022/06/10 03:30:55;;;;;;;7.30;5.27;;;13.40;99.90;;;;;;5114607;28;20445;-81
2022/06/10 03:33:34;;;;;;;10.53;5.10;;;13.40;99.90;;;;;;5114382;28;20489;-81
2022/06/10 03:36:06;;;;;;;5.80;5.20;;;13.40;99.90;;;;;;5114905;28;20461;-82
2022/06/10 03:38:39;;;;;;;5.70;5.20;;;13.40;99.90;;;;;;5113979;28;20488;-81
2022/06/10 03:41:06;;;;;;;6.03;5.13;;;13.50;99.90;;;;;;5113472;28;20459;-81
2022/06/10 03:43:36;;;;;;;11.10;5.47;;;13.50;99.90;;;;;;5114681;28;20445;-81
2022/06/10 03:46:07;;;;;;;8.90;5.43;;;13.50;99.90;;;;;;5114552;28;20456;-81
2022/06/10 03:48:37;;;;;;;9.90;5.70;;;13.50;99.90;;;;;;5114445;28;20469;-81
2022/06/10 03:51:07;;;;;;;5.70;5.00;;;13.60;99.90;;;;;;5114414;28;20564;-81
2022/06/10 03:53:34;;;;;;;7.03;5.87;;;13.60;99.90;;;;;;5114028;28;21199;-82
2022/06/10 03:56:00;;;;;;;9.30;5.83;;;13.60;99.90;;;;;;5116202;28;20459;-81
2022/06/10 03:58:27;;;;;;;7.57;5.83;;;13.60;99.90;;;;;;5120443;28;20528;-81
2022/06/10 04:00:55;;;;;;;11.80;5.83;;;13.70;99.90;;;;;;5120576;28;20902;-81
2022/06/10 04:03:22;;;;;;;7.40;5.47;;;13.70;99.90;;;;;;5120435;28;20555;-80
2022/06/10 04:05:49;;;;;;;8.73;5.50;;;13.70;99.90;;;;;;5120744;28;20473;-79
2022/06/10 04:08:17;;;;;;;13.93;5.97;;;13.70;99.90;;;;;;5119759;28;20502;-80
2022/06/10 04:10:44;;;;;;;7.60;5.03;;;13.80;99.90;;;;;;5120540;28;20483;-80
2022/06/10 04:13:11;;;;;;;12.00;7.00;;;13.80;99.90;;;;;;5119240;28;20456;-80
2022/06/10 04:15:38;;;;;;;7.30;5.53;;;13.80;99.90;;;;;;5120287;28;20499;-81
2022/06/10 04:20:39;;;;;;;13.53;5.60;;;13.90;99.90;;;;;;5095527;28;20468;-79
2022/06/10 04:23:07;;;;;;;9.20;7.30;;;13.90;99.90;;;;;;5099862;28;20489;-79
2022/06/10 04:25:37;;;;;;;9.90;5.87;;;14.00;99.90;;;;;;5102469;28;20473;-79
2022/06/10 04:28:05;;;;;;;11.23;6.40;;;14.00;99.90;;;;;;5101598;28;20456;-80
2022/06/10 04:30:35;;;;;;;9.57;5.60;;;14.10;99.90;;;;;;5100849;28;20517;-79
2022/06/10 04:33:02;;;;;;;8.30;5.70;;;14.20;99.90;;;;;;5099978;28;20879;-79
2022/06/10 04:35:30;;;;;;;7.80;5.00;;;14.30;99.90;;;;;;5100570;28;20438;-80
2022/06/10 04:37:57;;;;;;;8.57;5.30;;;14.30;99.90;;;;;;5103514;28;20454;-78
2022/06/10 04:40:27;;;;;;;7.20;5.17;;;14.30;99.90;;;;;;5101903;28;20528;-79
2022/06/10 04:42:56;;;;;;;9.17;5.50;;;14.40;99.90;;;;;;5101242;28;20456;-79
2022/06/10 04:45:25;;;;;;;7.70;5.73;;;14.30;99.90;;;;;;5101716;28;20467;-80
2022/06/10 04:47:54;;;;;;;8.40;4.93;;;14.50;99.90;;;;;;5101354;28;20495;-80
2022/06/10 04:50:24;;;;;;;7.70;4.50;;;14.60;99.90;;;;;;5101507;28;20529;-79
2022/06/10 04:52:51;;;;;;;7.20;4.50;;;14.60;99.90;;;;;;5101523;28;20443;-79
2022/06/10 04:55:19;;;;;;;9.93;4.60;;;14.70;99.90;;;;;;5101227;28;20486;-79
2022/06/10 04:57:46;;;;;;;8.87;4.40;;;14.70;99.90;;;;;;5101032;28;20516;-80
2022/06/10 05:00:19;;;;;;;7.17;4.20;;;14.70;99.90;;;;;;5102417;28;20545;-79
2022/06/10 05:02:46;;;;;;;6.33;3.70;;;14.90;99.90;;;;;;5102431;28;20453;-79
2022/06/10 05:05:14;;;;;;;11.43;5.03;;;15.00;99.90;;;;;;5102088;28;20443;-80
2022/06/10 05:07:41;;;;;;;5.63;3.93;;;15.00;99.90;;;;;;5100293;28;20858;-80
2022/06/10 05:10:09;;;;;;;8.10;4.87;;;15.00;99.90;;;;;;5102356;28;20471;-79
2022/06/10 05:12:35;;;;;;;7.57;4.03;;;15.10;99.90;;;;;;5100938;28;20491;-80
2022/06/10 05:15:02;;;;;;;6.17;4.17;;;15.20;99.90;;;;;;5102633;28;20510;-79
2022/06/10 05:17:31;;;;;;;10.50;4.73;;;15.30;99.90;;;;;;5102917;28;20972;-80
2022/06/10 05:19:58;;;;;;;7.37;4.40;;;15.20;99.90;;;;;;5104274;28;20484;-80
2022/06/10 05:22:25;;;;;;;7.87;4.30;;;15.30;99.90;;;;;;5104720;28;20476;-79
2022/06/10 05:24:51;;;;;;;13.50;3.60;;;15.30;99.90;;;;;;5096498;28;20513;-79
2022/06/10 05:27:18;;;;;;;11.50;3.70;;;15.50;99.90;;;;;;5095777;28;20511;-79
2022/06/10 05:29:45;;;;;;;9.33;3.20;;;15.60;99.90;;;;;;5096046;28;20921;-78
2022/06/10 05:32:12;;;;;;;9.10;4.30;;;15.60;99.90;;;;;;5096581;28;21048;-80
2022/06/10 05:34:46;;;;;;;5.23;2.70;;;15.60;99.90;;;;;;5095737;28;20486;-79
2022/06/10 05:37:16;;;;;;;10.10;3.40;;;15.70;99.90;;;;;;5096544;28;20674;-79
2022/06/10 05:39:43;;;;;;;8.77;3.53;;;15.80;99.90;;;;;;5096578;28;20905;-79
2022/06/10 05:42:10;;;;;;;11.57;3.47;;;15.90;99.90;;;;;;5097279;28;20478;-79
2022/06/10 05:44:40;;;;;;;4.43;3.20;;;16.10;99.90;;;;;;5097004;28;20448;-79
2022/06/10 05:47:08;;;;;;;11.77;3.37;;;16.20;99.90;;;;;;5097870;28;20530;-81
2022/06/10 05:49:37;;;;;;;9.20;3.90;;;16.40;99.90;;;;;;5098532;28;20504;-80
2022/06/10 05:52:06;;;;;;;7.60;3.40;;;16.40;99.90;;;;;;5097660;28;20499;-81
2022/06/10 05:54:34;;;;;;;7.67;3.70;;;16.60;99.90;;;;;;5099452;28;20565;-81
2022/06/10 05:57:01;;;;;;;9.17;3.07;;;16.70;99.90;;;;;;5098684;28;20529;-82
2022/06/10 05:59:29;;;;;;;8.43;3.63;;;16.80;99.90;;;;;;5100424;28;20523;-79
2022/06/10 06:01:57;;;;;;;8.13;3.30;;;16.80;99.90;;;;;;5099338;28;20486;-80
2022/06/10 06:04:24;;;;;;;4.43;2.47;;;16.80;99.90;;;;;;5098955;28;20449;-81
2022/06/10 06:06:51;;;;;;;7.03;3.00;;;17.00;99.90;;;;;;5098229;28;20449;-79
2022/06/10 06:09:21;;;;;;;13.30;4.30;;;17.10;99.90;;;;;;5098372;28;20492;-79
2022/06/10 06:11:50;;;;;;;7.47;3.70;;;17.20;99.90;;;;;;5098595;28;20809;-80
2022/06/10 06:14:18;;;;;;;7.87;3.07;;;17.20;99.90;;;;;;5097688;28;20996;-79
2022/06/10 06:16:50;;;;;;;6.10;3.53;;;17.20;99.90;;;;;;5099109;28;20462;-80
2022/06/10 06:19:17;;;;;;;9.53;2.67;;;17.10;99.90;;;;;;5097675;28;20478;-79
2022/06/10 06:21:44;;;;;;;7.60;3.10;;;17.20;99.90;;;;;;5096818;28;20488;-80
2022/06/10 06:24:11;;;;;;;6.10;2.90;;;17.30;99.90;;;;;;5095949;28;20541;-79
2022/06/10 06:26:39;;;;;;;8.60;3.40;;;17.30;99.90;;;;;;5096322;28;20523;-79
2022/06/10 06:29:06;;;;;;;9.97;3.80;;;17.30;99.90;;;;;;5096801;28;20505;-78
2022/06/10 06:31:33;;;;;;;4.00;2.30;;;17.30;99.90;;;;;;5097142;28;20477;-79
2022/06/10 06:34:09;;;;;;;10.83;2.93;;;17.40;99.90;;;;;;5096367;28;20458;-79
2022/06/10 06:36:41;;;;;;;6.97;2.83;;;17.50;99.90;;;;;;5096924;28;20482;-79
2022/06/10 06:39:08;;;;;;;10.53;3.17;;;17.70;99.90;;;;;;5096937;28;20466;-80
2022/06/10 06:41:35;;;;;;;7.63;2.67;;;17.70;99.90;;;;;;5098802;28;20479;-82
2022/06/10 06:44:05;;;;;;;6.27;2.40;;;17.60;99.90;;;;;;5098243;28;20451;-80
2022/06/10 06:46:32;;;;;;;13.87;3.20;;;17.60;99.90;;;;;;5098017;28;20443;-77
2022/06/10 06:49:00;;;;;;;3.20;2.40;;;17.60;99.90;;;;;;5094534;28;21010;-80
2022/06/10 06:51:26;;;;;;;9.30;3.17;;;17.60;99.90;;;;;;5095125;28;20446;-78
2022/06/10 06:53:53;;;;;;;5.80;2.57;;;17.70;99.90;;;;;;5094488;28;20926;-79
2022/06/10 06:56:20;;;;;;;7.47;2.60;;;17.80;99.90;;;;;;5095042;28;20454;-79
2022/06/10 06:58:47;;;;;;;5.77;3.00;;;17.80;99.90;;;;;;5094558;28;20477;-78
2022/06/10 07:01:16;;;;;;;9.70;3.03;;;17.80;99.90;;;;;;5095299;28;20473;-78
2022/06/10 07:03:42;;;;;;;7.77;2.70;;;17.90;99.90;;;;;;5094504;28;20450;-78
2022/06/10 07:06:10;;;;;;;8.00;2.17;;;18.00;99.90;;;;;;5094825;28;20477;-77
2022/06/10 07:08:37;;;;;;;7.10;2.60;;;18.20;99.90;;;;;;5095299;28;20492;-79
2022/06/10 07:11:06;;;;;;;6.27;2.63;;;18.10;99.90;;;;;;5095695;28;20543;-78
2022/06/10 07:13:33;;;;;;;5.70;2.00;;;18.00;99.90;;;;;;5095623;28;20491;-79
2022/06/10 07:16:01;;;;;;;5.60;1.80;;;18.10;99.90;;;;;;5094854;28;20578;-77
2022/06/10 07:18:30;;;;;;;9.23;2.57;;;18.20;99.90;;;;;;5095213;28;20887;-79
2022/06/10 07:20:58;;;;;;;6.17;2.30;;;18.20;99.90;;;;;;5096214;28;20539;-79
2022/06/10 07:23:25;;;;;;;6.43;1.87;;;18.20;99.90;;;;;;5096834;28;20526;-78
2022/06/10 07:25:51;;;;;;;7.20;2.60;;;18.30;99.90;;;;;;5097798;28;20445;-77
2022/06/10 07:28:18;;;;;;;5.73;1.93;;;18.40;99.90;;;;;;5100121;28;20477;-78
2022/06/10 07:30:45;;;;;;;6.40;2.30;;;18.30;99.90;;;;;;5099217;28;20507;-80
2022/06/10 07:33:13;;;;;;;5.13;2.77;;;18.50;99.90;;;;;;5099715;28;20486;-78
2022/06/10 07:35:43;;;;;;;9.43;2.00;;;18.50;99.90;;;;;;5099304;28;20486;-79
2022/06/10 07:38:11;;;;;;;7.67;2.40;;;18.40;99.90;;;;;;5100060;28;20538;-79
2022/06/10 07:43:25;;;;;;;8.83;1.90;;;18.70;99.90;;;;;;5099725;28;20424;-80
2022/06/10 07:45:52;;;;;;;9.67;2.37;;;18.80;99.90;;;;;;5100596;28;20441;-79
2022/06/10 07:48:20;;;;;;;9.03;2.07;;;18.80;99.90;;;;;;5099259;28;20461;-78
2022/06/10 07:50:49;;;;;;;6.93;2.20;;;18.70;99.90;;;;;;5099490;28;20512;-79
2022/06/10 07:53:17;;;;;;;6.30;1.90;;;18.60;99.90;;;;;;5099730;28;20484;-81
2022/06/10 07:55:45;;;;;;;9.43;1.77;;;18.70;99.90;;;;;;5099675;28;20521;-78
2022/06/10 07:58:14;;;;;;;6.70;2.27;;;19.00;99.90;;;;;;5099496;28;20510;-78
2022/06/10 08:00:41;;;;;;;4.53;1.53;;;19.10;99.90;;;;;;5098337;28;20524;-79
2022/06/10 08:03:08;;;;;;;6.40;1.90;;;19.10;99.90;;;;;;5097421;28;20536;-77
2022/06/10 08:05:35;;;;;;;4.97;1.57;;;19.30;99.90;;;;;;5096843;28;20523;-80
2022/06/10 08:08:04;;;;;;;6.57;2.20;;;19.30;99.90;;;;;;5098539;28;20528;-78
2022/06/10 08:10:34;;;;;;;3.33;1.40;;;19.10;99.90;;;;;;5098580;28;20501;-78
2022/06/10 08:13:02;;;;;;;6.60;1.70;;;19.20;99.90;;;;;;5097966;28;20480;-79
2022/06/10 08:15:30;;;;;;;8.90;1.60;;;19.30;99.90;;;;;;5098040;28;20519;-78
2022/06/10 08:17:57;;;;;;;3.47;1.80;;;19.50;99.90;;;;;;5098551;28;20449;-78
2022/06/10 08:22:32;;;;;;;4.10;2.10;;;19.60;99.90;;;;;;5097733;28;20527;-79
2022/06/10 08:23:14;;;;;;;5.33;1.57;;;19.50;99.90;;;;;;5097520;28;20452;-78
2022/06/10 08:25:42;;;;;;;5.23;1.90;;;19.70;99.90;;;;;;5097918;28;20838;-79
2022/06/10 08:28:09;;;;;;;7.70;2.23;;;19.90;99.90;;;;;;5098072;28;21040;-79
2022/06/10 08:30:37;;;;;;;3.20;1.57;;;20.20;99.90;;;;;;5097999;28;20885;-79
2022/06/10 08:33:04;;;;;;;3.90;1.27;;;20.50;99.90;;;;;;5097524;28;20946;-79
2022/06/10 08:35:32;;;;;;;5.80;1.87;;;20.60;99.90;;;;;;5096764;28;20493;-79
2022/06/10 08:37:58;;;;;;;5.60;1.40;;;20.90;99.90;;;;;;5097199;28;20442;-78
2022/06/10 08:40:36;;;;;;;5.63;1.83;;;21.10;99.90;;;;;;5096776;28;20478;-79
2022/06/10 08:43:09;;;;;;;4.03;1.70;;;21.10;99.90;;;;;;5096602;28;20552;-79
2022/06/10 08:45:43;;;;;;;4.30;1.40;;;21.00;99.90;;;;;;5097544;28;20453;-78
2022/06/10 08:48:21;;;;;;;3.13;1.20;;;21.20;99.90;;;;;;5096934;28;20634;-79
2022/06/10 08:51:13;;;;;;;5.30;2.03;;;21.30;99.90;;;;;;5097512;28;21017;-79
2022/06/10 08:54:04;;;;;;;3.70;1.70;;;21.60;99.90;;;;;;5096506;28;20542;-78
2022/06/10 08:56:35;;;;;;;5.40;1.40;;;21.60;99.90;;;;;;5096961;28;20562;-79
2022/06/10 08:59:07;;;;;;;4.27;2.07;;;21.90;99.90;;;;;;5097941;28;20508;-79
2022/06/10 09:01:48;;;;;;;4.70;1.43;;;21.70;99.90;;;;;;5098244;28;20447;-79
2022/06/10 09:04:26;;;;;;;4.67;1.90;;;22.10;99.90;;;;;;5098478;28;20469;-80
2022/06/10 09:06:57;;;;;;;8.17;1.50;;;22.50;99.90;;;;;;5099633;28;20897;-79
2022/06/10 09:09:27;;;;;;;7.07;1.80;;;22.70;99.90;;;;;;5097790;28;20553;-79
2022/06/10 09:12:01;;;;;;;5.43;1.40;;;22.60;99.90;;;;;;5096890;28;20457;-80
2022/06/10 09:14:29;;;;;;;6.13;1.87;;;22.50;99.90;;;;;;5097423;28;20536;-80
2022/06/10 09:17:06;;;;;;;3.13;1.27;;;22.30;99.90;;;;;;5097518;28;20453;-79
2022/06/10 09:19:41;;;;;;;6.03;1.50;;;22.20;99.90;;;;;;5096749;28;20915;-79
2022/06/10 09:22:16;;;;;;;6.57;1.70;;;21.90;99.90;;;;;;5096623;28;20465;-78
2022/06/10 09:24:48;;;;;;;5.70;1.60;;;22.10;99.90;;;;;;5096211;28;20500;-79
2022/06/10 09:27:22;;;;;;;3.60;1.27;;;22.30;99.90;;;;;;5097228;28;20453;-79
2022/06/10 09:29:49;;;;;;;6.80;1.50;;;22.30;99.90;;;;;;5100396;28;20475;-81
2022/06/10 09:32:23;;;;;;;4.60;2.53;;;22.30;99.90;;;;;;5100019;28;20481;-79
2022/06/10 09:34:59;;;;;;;4.37;1.73;;;22.40;99.90;;;;;;5101518;28;20962;-79
2022/06/10 09:37:34;;;;;;;6.67;1.70;;;22.40;99.90;;;;;;5105697;28;20441;-79
2022/06/10 09:43:20;;;;;;;6.20;2.17;;;22.50;99.90;;;;;;5098855;28;20449;-81
2022/06/10 09:45:55;;;;;;;6.13;1.70;;;22.00;99.90;;;;;;5096616;28;20450;-80
2022/06/10 09:48:37;;;;;;;7.33;2.23;;;21.60;99.90;;;;;;5095981;28;20418;-79
2022/06/10 09:51:11;;;;;;;5.87;2.47;;;21.30;99.90;;;;;;5098877;28;20513;-81
2022/06/10 09:53:53;;;;;;;4.10;1.40;;;21.50;99.90;;;;;;5096840;28;20939;-80
2022/06/10 09:56:44;;;;;;;4.73;2.00;;;21.30;99.90;;;;;;5097653;28;20506;-80
2022/06/10 09:59:21;;;;;;;6.33;1.60;;;21.40;99.90;;;;;;5098022;28;20494;-77
2022/06/10 10:01:58;;;;;;;4.40;1.50;;;21.60;99.90;;;;;;5095278;28;20517;-79
2022/06/10 10:04:50;;;;;;;6.90;1.80;;;21.70;99.90;;;;;;5094850;28;20538;-79
2022/06/10 10:07:27;;;;;;;5.53;1.30;;;21.80;99.90;;;;;;5095469;28;20441;-78
2022/06/10 10:10:03;;;;;;;6.37;1.50;;;22.10;99.90;;;;;;5095125;28;20993;-79
2022/06/10 10:12:40;;;;;;;3.53;1.30;;;22.30;99.90;;;;;;5105988;28;20457;-82
2022/06/10 10:15:23;;;;;;;5.30;1.50;;;22.40;99.90;;;;;;5096316;28;20884;-78
2022/06/10 10:18:08;;;;;;;5.13;1.47;;;22.50;99.90;;;;;;5094549;28;20454;-78
2022/06/10 10:20:54;;;;;;;3.63;1.50;;;22.30;99.90;;;;;;5111390;22;20519;-80
2022/06/10 10:23:26;;;;;;;6.23;1.30;;;22.20;99.90;;;;;;5074268;28;20450;-81
2022/06/10 10:25:53;;;;;;;4.07;1.40;;;22.20;99.90;;;;;;5074472;28;20439;-80
2022/06/10 10:28:22;;;;;;;6.53;1.50;;;22.00;99.90;;;;;;5074618;28;20537;-80
2022/06/10 10:31:01;;;;;;;6.93;1.70;;;21.80;99.90;;;;;;5074729;28;20975;-81
2022/06/10 10:33:28;;;;;;;4.60;1.47;;;21.70;99.90;;;;;;5074251;28;20542;-79
2022/06/10 10:35:57;;;;;;;3.60;1.00;;;21.90;99.90;;;;;;5074297;28;20487;-79
2022/06/10 10:38:34;;;;;;;2.73;1.20;;;21.60;99.90;;;;;;5074166;28;20477;-80
2022/06/10 10:41:12;;;;;;;3.67;1.10;;;21.60;99.90;;;;;;5073410;28;20532;-80
2022/06/10 10:43:39;;;;;;;4.37;1.43;;;21.70;99.90;;;;;;5074254;28;20497;-78
2022/06/10 10:46:25;;;;;;;3.43;1.50;;;21.70;99.90;;;;;;5074331;28;20454;-81
2022/06/10 10:48:52;;;;;;;5.63;1.60;;;21.70;99.90;;;;;;5057816;28;20537;-81
2022/06/10 10:51:22;;;;;;;4.30;1.40;;;21.80;99.90;;;;;;5074526;28;20470;-79
2022/06/10 10:53:54;;;;;;;5.20;1.47;;;22.30;99.90;;;;;;5074397;28;20524;-78
2022/06/10 10:56:30;;;;;;;3.10;1.83;;;22.50;99.90;;;;;;5074149;28;20487;-79
2022/06/10 10:58:58;;;;;;;6.33;2.30;;;22.50;99.90;;;;;;5074466;28;20458;-78
2022/06/10 11:01:45;;;;;;;3.70;1.50;;;22.70;99.90;;;;;;5073332;28;20557;-78
2022/06/10 11:04:12;;;;;;;3.77;1.67;;;22.80;99.90;;;;;;5073651;28;20486;-79
2022/06/10 11:06:40;;;;;;;5.13;1.57;;;23.20;99.90;;;;;;5076598;28;20533;-78
2022/06/10 11:09:17;;;;;;;5.83;1.93;;;23.30;99.90;;;;;;5077957;28;20937;-81
2022/06/10 11:11:46;;;;;;;5.87;1.57;;;23.50;99.90;;;;;;5078606;28;20503;-79
2022/06/10 11:14:23;;;;;;;5.90;2.37;;;23.70;99.90;;;;;;5079984;28;20901;-82
2022/06/10 11:17:13;;;;;;;4.20;2.03;;;23.90;99.90;;;;;;5079718;28;20470;-78
2022/06/10 11:19:44;;;;;;;6.20;2.37;;;24.10;99.90;;;;;;5078940;28;20474;-78
2022/06/10 11:22:28;;;;;;;4.77;1.70;;;24.00;99.90;;;;;;5078952;28;20542;-80
2022/06/10 11:25:15;;;;;;;3.83;2.20;;;24.10;99.90;;;;;;5076597;28;20469;-81
2022/06/10 11:27:57;;;;;;;5.40;1.87;;;24.10;99.90;;;;;;5078055;28;20463;-79
2022/06/10 11:30:33;;;;;;;5.60;2.00;;;24.30;99.90;;;;;;5078468;28;20489;-81
2022/06/10 11:33:04;;;;;;;6.33;1.90;;;24.60;99.90;;;;;;5078031;28;20553;-80
2022/06/10 11:35:34;;;;;;;4.67;2.47;;;25.10;99.90;;;;;;5077670;28;20550;-81
2022/06/10 11:38:04;;;;;;;6.27;1.83;;;25.20;99.90;;;;;;5078000;28;20482;-82
2022/06/10 11:40:40;;;;;;;5.00;1.43;;;24.70;99.90;;;;;;5076978;28;20502;-81
2022/06/10 11:43:16;;;;;;;10.37;1.87;;;24.90;99.90;;;;;;5077170;28;20533;-80
2022/06/10 11:45:50;;;;;;;5.00;2.10;;;24.80;99.90;;;;;;5077890;28;20858;-80
2022/06/10 11:48:31;;;;;;;5.13;1.70;;;24.80;99.90;;;;;;5077201;28;20481;-80
2022/06/10 11:51:02;;;;;;;4.27;1.53;;;24.90;99.90;;;;;;5077488;28;20557;-79
2022/06/10 11:53:40;;;;;;;6.70;1.80;;;25.10;99.90;;;;;;5077618;28;20501;-83
2022/06/10 12:01:53;;;;;;;6.23;1.50;;;25.50;99.90;;;;;;5077106;28;20496;-80
2022/06/10 12:04:27;;;;;;;5.90;1.67;;;25.90;99.90;;;;;;5078022;28;20524;-80
2022/06/10 12:07:00;;;;;;;3.80;1.43;;;26.20;99.90;;;;;;5078419;28;20533;-80
2022/06/10 12:09:32;;;;;;;7.07;2.00;;;26.40;99.90;;;;;;5078549;28;20542;-81
2022/06/10 12:12:02;;;;;;;6.20;1.60;;;26.50;99.90;;;;;;5078239;28;20470;-82
2022/06/10 12:14:32;;;;;;;3.73;1.50;;;26.40;99.90;;;;;;5077756;28;20506;-82
2022/06/10 12:17:03;;;;;;;2.43;1.40;;;26.50;99.90;;;;;;5077819;28;20663;-81
2022/06/10 12:19:36;;;;;;;7.97;1.77;;;26.40;99.90;;;;;;5078546;28;20505;-81
2022/06/10 12:22:03;;;;;;;7.10;1.40;;;25.80;99.90;;;;;;5078194;28;20483;-81
2022/06/10 12:24:31;;;;;;;4.53;1.30;;;26.30;99.90;;;;;;5078619;28;20505;-81
2022/06/10 12:27:01;;;;;;;5.60;1.30;;;26.40;99.90;;;;;;5076960;28;20453;-82
2022/06/10 12:29:38;;;;;;;3.57;1.43;;;26.70;99.90;;;;;;5076910;28;20451;-81
2022/06/10 12:32:13;;;;;;;4.50;1.33;;;26.70;99.90;;;;;;5076660;28;20917;-80
2022/06/10 12:34:57;;;;;;;5.10;1.73;;;27.20;99.90;;;;;;5076337;28;20537;-79
2022/06/10 12:37:36;;;;;;;7.10;1.60;;;27.10;99.90;;;;;;5076922;28;21097;-79
2022/06/10 12:40:09;;;;;;;6.93;1.50;;;27.00;99.90;;;;;;5076576;28;20534;-80
2022/06/10 12:42:43;;;;;;;3.50;1.30;;;27.30;99.90;;;;;;5078012;28;20455;-79
2022/06/10 12:45:22;;;;;;;4.60;1.23;;;27.90;99.90;;;;;;5077518;28;20497;-79
2022/06/10 12:47:55;;;;;;;4.10;1.50;;;28.30;99.90;;;;;;5077383;28;20876;-79
2022/06/10 12:50:28;;;;;;;4.47;1.30;;;28.50;99.90;;;;;;5059116;28;20463;-79
2022/06/10 12:53:22;;;;;;;5.27;1.93;;;28.30;99.90;;;;;;5077470;28;20446;-79
2022/06/10 12:55:51;;;;;;;2.73;1.40;;;27.30;99.90;;;;;;5077257;28;20455;-81
2022/06/10 12:58:42;;;;;;;3.30;1.10;;;27.10;99.90;;;;;;5077510;28;20447;-79
2022/06/10 13:01:22;;;;;;;4.97;1.30;;;27.00;99.90;;;;;;5077457;28;20524;-80
2022/06/10 13:03:50;;;;;;;3.57;1.30;;;26.80;99.90;;;;;;5077432;28;20540;-79
2022/06/10 13:06:50;;;;;;;3.70;1.27;;;26.40;99.90;;;;;;5077612;28;20479;-80
2022/06/10 13:09:33;;;;;;;3.60;1.27;;;26.40;99.90;;;;;;5071012;28;20495;-79
2022/06/10 13:12:22;;;;;;;4.87;1.43;;;26.30;99.90;;;;;;5077632;28;20466;-79
2022/06/10 13:15:12;;;;;;;4.07;1.13;;;26.30;99.90;;;;;;5077098;28;20455;-80
2022/06/10 13:17:54;;;;;;;3.90;1.37;;;26.40;99.90;;;;;;5078238;28;20506;-79
2022/06/10 13:20:27;;;;;;;4.60;1.17;;;26.60;99.90;;;;;;5077896;28;20489;-80
2022/06/10 13:23:20;;;;;;;4.63;1.60;;;26.70;99.90;;;;;;5077071;28;21026;-81
2022/06/10 13:25:51;;;;;;;4.43;1.40;;;26.70;99.90;;;;;;5078010;28;20455;-81
2022/06/10 13:28:25;;;;;;;4.70;1.30;;;26.80;99.90;;;;;;5078490;28;20458;-79
2022/06/10 13:31:04;;;;;;;5.27;1.63;;;27.00;99.90;;;;;;5078543;28;20477;-79